createdAt,value
2019-01-06T00:00:07.439Z,8.43
2019-01-06T00:03:16.076Z,8.05
2019-01-06T00:06:16.217Z,12.30
2019-01-06T00:09:44.485Z,7.97
2019-01-06T00:12:34.406Z,6.17
2019-01-06T00:15:34.156Z,11.35
2019-01-06T00:18:40.959Z,8.43
2019-01-06T00:21:41.159Z,9.63
2019-01-06T00:24:41.420Z,8.98
2019-01-06T00:27:41.674Z,6.12
2019-01-06T00:30:38.526Z,7.47
2019-01-06T00:33:37.082Z,5.50
2019-01-06T00:36:37.399Z,6.50
2019-01-06T00:39:45.240Z,6.92
2019-01-06T00:42:38.009Z,7.42
2019-01-06T00:45:28.321Z,7.22
2019-01-06T00:51:36.255Z,7.90
2019-01-06T00:54:32.014Z,4.70
2019-01-06T00:57:39.264Z,6.12
2019-01-06T01:00:38.910Z,8.80
2019-01-06T01:03:46.353Z,7.00
2019-01-06T01:06:49.191Z,6.62
2019-01-06T01:09:56.135Z,6.85
2019-01-06T01:12:55.895Z,5.83
2019-01-06T01:16:02.746Z,9.00
2019-01-06T01:19:03.102Z,7.10
2019-01-06T01:22:00.883Z,5.85
2019-01-06T01:25:00.755Z,6.90
2019-01-06T01:28:08.099Z,8.15
2019-01-06T01:31:07.649Z,6.30
2019-01-06T01:34:14.744Z,4.97
2019-01-06T01:37:14.390Z,7.67
2019-01-06T01:40:21.337Z,6.08
2019-01-06T01:43:15.457Z,5.80
2019-01-06T01:46:22.447Z,6.25
2019-01-06T01:49:22.463Z,7.33
2019-01-06T01:52:29.593Z,7.45
2019-01-06T01:55:30.217Z,6.62
2019-01-06T01:58:37.052Z,6.12
2019-01-06T02:01:37.407Z,5.70
2019-01-06T02:04:34.599Z,5.65
2019-01-06T02:07:34.725Z,5.47
2019-01-06T02:10:41.676Z,6.53
2019-01-06T02:13:42.319Z,5.00
2019-01-06T02:16:49.611Z,4.55
2019-01-06T02:19:50.761Z,4.55
2019-01-06T02:22:53.923Z,4.62
2019-01-06T02:26:02.930Z,6.95
2019-01-06T02:29:03.459Z,5.50
2019-01-06T02:32:03.103Z,5.20
2019-01-06T02:35:09.950Z,6.55
2019-01-06T02:38:10.543Z,7.75
2019-01-06T02:41:17.491Z,7.33
2019-01-06T02:44:17.692Z,9.85
2019-01-06T02:47:24.527Z,5.53
2019-01-06T02:50:24.253Z,6.87
2019-01-06T02:53:31.116Z,6.30
2019-01-06T02:56:33.797Z,6.12
2019-01-06T02:59:40.726Z,6.90
2019-01-06T03:02:41.128Z,6.40
2019-01-06T03:05:47.087Z,7.28
2019-01-06T03:08:47.631Z,8.50
2019-01-06T03:11:54.535Z,8.45
2019-01-06T03:14:56.922Z,7.92
2019-01-06T03:18:04.146Z,8.33
2019-01-06T03:21:04.419Z,8.80
2019-01-06T03:24:04.599Z,8.33
2019-01-06T03:27:11.638Z,9.48
2019-01-06T03:30:17.502Z,7.65
2019-01-06T03:33:24.733Z,10.23
2019-01-06T03:36:24.345Z,9.80
2019-01-06T03:39:28.209Z,8.98
2019-01-06T03:42:28.651Z,8.08
2019-01-06T03:45:28.824Z,9.45
2019-01-06T03:48:35.973Z,9.35
2019-01-06T03:51:36.310Z,8.85
2019-01-06T03:54:31.367Z,9.65
2019-01-06T03:57:38.279Z,9.48
2019-01-06T04:00:36.432Z,9.45
2019-01-06T04:03:43.651Z,8.23
2019-01-06T04:06:49.433Z,9.20
2019-01-06T04:09:49.912Z,10.70
2019-01-06T04:12:56.853Z,9.88
2019-01-06T04:16:00.173Z,8.35
2019-01-06T04:19:07.415Z,11.08
2019-01-06T04:22:07.413Z,8.50
2019-01-06T04:25:07.272Z,11.18
2019-01-06T04:28:13.993Z,8.53
2019-01-06T04:31:14.509Z,8.18
2019-01-06T04:34:21.440Z,9.58
2019-01-06T04:37:22.167Z,8.88
2019-01-06T04:40:22.222Z,6.45
2019-01-06T04:43:29.148Z,7.35
2019-01-06T04:46:29.026Z,6.25
2019-01-06T04:49:36.071Z,6.22
2019-01-06T04:52:35.310Z,6.45
2019-01-06T04:55:36.822Z,5.83
2019-01-06T04:58:43.629Z,5.45
2019-01-06T05:01:43.661Z,6.47
2019-01-06T05:04:50.626Z,4.58
2019-01-06T05:07:51.081Z,5.67
2019-01-06T05:10:51.050Z,4.90
2019-01-06T05:13:58.239Z,5.20
2019-01-06T05:16:58.927Z,6.58
2019-01-06T05:20:05.674Z,5.20
2019-01-06T05:23:05.407Z,6.15
2019-01-06T05:26:12.202Z,5.10
2019-01-06T05:29:12.044Z,4.28
2019-01-06T05:32:18.891Z,3.90
2019-01-06T05:35:18.615Z,4.00
2019-01-06T05:38:25.764Z,4.40
2019-01-06T05:41:25.923Z,4.60
2019-01-06T05:44:32.791Z,5.42
2019-01-06T05:47:33.350Z,3.98
2019-01-06T05:50:40.260Z,6.90
2019-01-06T05:53:39.975Z,4.12
2019-01-06T05:56:46.956Z,3.80
2019-01-06T05:59:50.005Z,4.37
2019-01-06T06:02:56.924Z,3.42
2019-01-06T06:05:56.966Z,3.00
2019-01-06T06:08:57.580Z,2.98
2019-01-06T06:12:04.771Z,6.45
2019-01-06T06:15:02.827Z,4.22
2019-01-06T06:18:09.664Z,4.92
2019-01-06T06:21:09.304Z,7.05
2019-01-06T06:24:09.533Z,4.10
2019-01-06T06:27:16.724Z,3.92
2019-01-06T06:30:16.799Z,2.83
2019-01-06T06:33:23.632Z,4.67
2019-01-06T06:36:23.511Z,3.27
2019-01-06T06:39:27.551Z,4.00
2019-01-06T06:42:23.390Z,4.40
2019-01-06T06:45:30.330Z,3.33
2019-01-06T06:48:30.995Z,3.05
2019-01-06T06:51:30.684Z,5.30
2019-01-06T06:54:31.118Z,4.03
2019-01-06T06:58:17.047Z,2.55
2019-01-06T07:01:22.258Z,3.33
2019-01-06T07:04:29.220Z,4.60
2019-01-06T07:07:29.582Z,2.60
2019-01-06T07:10:29.799Z,3.72
2019-01-06T07:13:37.715Z,3.08
2019-01-06T07:16:58.904Z,3.05
2019-01-06T07:20:05.997Z,2.60
2019-01-06T07:23:08.512Z,2.92
2019-01-06T07:26:10.242Z,4.78
2019-01-06T07:29:17.358Z,4.00
2019-01-06T07:32:17.534Z,2.35
2019-01-06T07:35:18.031Z,2.50
2019-01-06T07:38:24.789Z,3.15
2019-01-06T07:41:25.296Z,2.60
2019-01-06T07:44:32.263Z,3.22
2019-01-06T07:50:37.916Z,3.67
2019-01-06T07:53:37.460Z,4.60
2019-01-06T07:56:44.335Z,3.70
2019-01-06T07:59:44.135Z,3.40
2019-01-06T08:02:51.048Z,3.17
2019-01-06T08:05:51.659Z,3.62
2019-01-06T08:08:58.627Z,4.20
2019-01-06T08:11:59.125Z,3.33
2019-01-06T08:15:06.071Z,2.70
2019-01-06T08:18:06.519Z,2.92
2019-01-06T08:21:14.496Z,3.60
2019-01-06T08:24:14.512Z,4.08
2019-01-06T08:27:21.711Z,3.27
2019-01-06T08:30:22.287Z,5.05
2019-01-06T08:33:20.537Z,4.28
2019-01-06T08:36:21.264Z,3.45
2019-01-06T08:39:14.445Z,6.83
2019-01-06T08:42:01.818Z,5.33
2019-01-06T08:44:55.024Z,3.70
2019-01-06T08:47:41.312Z,5.55
2019-01-06T08:50:37.588Z,3.80
2019-01-06T08:53:20.061Z,5.78
2019-01-06T08:56:07.410Z,5.03
2019-01-06T08:58:57.324Z,3.95
2019-01-06T09:01:41.148Z,5.03
2019-01-06T09:04:25.396Z,3.50
2019-01-06T09:07:15.746Z,4.05
2019-01-06T09:09:56.666Z,5.37
2019-01-06T09:12:46.889Z,6.28
2019-01-06T09:15:33.322Z,3.47
2019-01-06T09:18:32.650Z,2.85
2019-01-06T09:21:22.628Z,3.42
2019-01-06T09:24:09.173Z,4.37
2019-01-06T09:26:59.969Z,3.17
2019-01-06T09:29:46.456Z,3.42
2019-01-06T09:32:49.044Z,3.83
2019-01-06T09:35:35.276Z,3.50
2019-01-06T09:38:21.631Z,2.67
2019-01-06T09:41:18.265Z,3.00
2019-01-06T09:44:08.630Z,3.12
2019-01-06T09:46:55.036Z,3.02
2019-01-06T09:50:00.600Z,2.80
2019-01-06T09:52:58.909Z,4.08
2019-01-06T09:55:45.246Z,5.92
2019-01-06T09:58:35.380Z,3.37
2019-01-06T10:01:21.463Z,4.03
2019-01-06T10:04:07.404Z,2.52
2019-01-06T10:07:07.381Z,2.58
2019-01-06T10:09:53.701Z,3.45
2019-01-06T10:12:46.927Z,3.40
2019-01-06T10:15:32.937Z,2.62
2019-01-06T10:18:18.972Z,2.95
2019-01-06T10:21:08.894Z,2.47
2019-01-06T10:23:55.317Z,3.05
2019-01-06T10:26:41.696Z,2.42
2019-01-06T10:29:28.026Z,2.15
2019-01-06T10:32:25.527Z,1.98
2019-01-06T10:35:11.575Z,2.40
2019-01-06T10:37:57.481Z,2.08
2019-01-06T10:40:47.816Z,3.40
2019-01-06T10:43:50.624Z,2.98
2019-01-06T10:46:43.428Z,1.32
2019-01-06T10:49:40.009Z,2.33
2019-01-06T10:52:27.641Z,2.37
2019-01-06T10:55:06.096Z,2.75
2019-01-06T10:57:52.051Z,1.20
2019-01-06T11:00:38.065Z,1.82
2019-01-06T11:03:25.773Z,2.75
2019-01-06T11:06:11.950Z,1.82
2019-01-06T11:08:57.890Z,2.02
2019-01-06T11:11:44.001Z,1.40
2019-01-06T11:14:34.181Z,1.50
2019-01-06T11:17:36.273Z,1.30
2019-01-06T11:20:28.147Z,1.42
2019-01-06T11:23:14.433Z,2.50
2019-01-06T11:26:11.280Z,0.75
2019-01-06T11:28:57.413Z,2.05
2019-01-06T11:31:45.465Z,1.30
2019-01-06T11:34:32.722Z,1.00
2019-01-06T11:37:18.804Z,1.25
2019-01-06T11:40:05.125Z,1.52
2019-01-06T11:42:52.172Z,1.52
2019-01-06T11:45:40.111Z,2.10
2019-01-06T11:48:27.311Z,3.05
2019-01-06T11:51:23.688Z,1.25
2019-01-06T11:54:10.870Z,1.57
2019-01-06T11:57:02.094Z,1.42
2019-01-06T11:59:48.763Z,1.82
2019-01-06T12:02:39.012Z,1.27
2019-01-06T12:05:24.389Z,0.75
2019-01-06T12:08:14.151Z,2.60
2019-01-06T12:10:53.347Z,3.92
2019-01-06T12:13:45.183Z,2.15
2019-01-06T12:16:35.050Z,1.17
2019-01-06T12:19:20.648Z,1.02
2019-01-06T12:22:19.093Z,1.27
2019-01-06T12:25:18.742Z,1.60
2019-01-06T12:28:11.973Z,1.00
2019-01-06T12:30:59.542Z,0.65
2019-01-06T12:33:45.754Z,1.05
2019-01-06T12:36:31.631Z,2.20
2019-01-06T12:39:31.181Z,2.17
2019-01-06T12:42:21.451Z,1.35
2019-01-06T12:45:17.334Z,1.95
2019-01-06T12:48:13.614Z,1.52
2019-01-06T12:50:54.520Z,1.65
2019-01-06T12:53:53.047Z,1.95
2019-01-06T12:56:38.590Z,3.45
2019-01-06T12:59:28.996Z,1.35
2019-01-06T13:02:19.490Z,1.92
2019-01-06T13:05:05.575Z,1.27
2019-01-06T13:07:51.707Z,1.92
2019-01-06T13:10:36.033Z,3.27
2019-01-06T13:13:18.700Z,1.70
2019-01-06T13:16:11.780Z,1.60
2019-01-06T13:19:00.318Z,1.70
2019-01-06T13:22:00.163Z,2.33
2019-01-06T13:24:46.029Z,1.27
2019-01-06T13:27:39.008Z,1.32
2019-01-06T13:30:27.258Z,2.27
2019-01-06T13:33:20.780Z,2.42
2019-01-06T13:36:06.243Z,1.80
2019-01-06T13:38:47.343Z,4.75
2019-01-06T13:41:33.273Z,1.22
2019-01-06T13:44:19.504Z,1.57
2019-01-06T13:47:16.391Z,2.27
2019-01-06T13:50:05.058Z,1.60
2019-01-06T13:52:59.649Z,1.47
2019-01-06T13:56:02.357Z,1.65
2019-01-06T13:59:02.103Z,4.30
2019-01-06T14:01:58.621Z,1.75
2019-01-06T14:04:54.830Z,1.80
2019-01-06T14:07:40.997Z,1.75
2019-01-06T14:10:36.744Z,2.35
2019-01-06T14:13:36.043Z,4.00
2019-01-06T14:16:26.667Z,1.72
2019-01-06T14:19:21.117Z,2.15
2019-01-06T14:22:17.770Z,1.55
2019-01-06T14:24:58.404Z,2.37
2019-01-06T14:27:44.647Z,2.45
2019-01-06T14:30:24.167Z,2.00
2019-01-06T14:33:10.225Z,2.87
2019-01-06T14:35:52.041Z,2.77
2019-01-06T14:42:06.680Z,3.12
2019-01-06T14:45:13.523Z,2.27
2019-01-06T14:48:13.660Z,2.35
2019-01-06T14:51:20.588Z,3.25
2019-01-06T14:54:20.640Z,2.47
2019-01-06T14:57:12.667Z,4.22
2019-01-06T15:00:19.571Z,4.05
2019-01-06T15:03:19.795Z,2.77
2019-01-06T15:06:26.762Z,3.15
2019-01-06T15:09:30.466Z,2.80
2019-01-06T15:12:30.501Z,3.95
2019-01-06T15:15:37.517Z,4.15
2019-01-06T15:18:38.284Z,3.37
2019-01-06T15:21:45.500Z,4.10
2019-01-06T15:24:45.825Z,3.42
2019-01-06T15:27:46.020Z,4.78
2019-01-06T15:30:52.841Z,3.75
2019-01-06T15:33:52.764Z,3.37
2019-01-06T15:36:59.889Z,3.55
2019-01-06T15:40:01.308Z,5.05
2019-01-06T15:43:01.613Z,5.75
2019-01-06T15:46:08.430Z,4.92
2019-01-06T15:49:08.304Z,4.75
2019-01-06T15:52:12.623Z,6.25
2019-01-06T15:55:12.710Z,6.85
2019-01-06T15:58:12.901Z,6.62
2019-01-06T16:01:19.700Z,5.60
2019-01-06T16:04:19.601Z,5.53
2019-01-06T16:07:26.572Z,5.05
2019-01-06T16:10:26.379Z,5.20
2019-01-06T16:13:26.671Z,6.60
2019-01-06T16:16:33.875Z,5.42
2019-01-06T16:19:34.257Z,6.30
2019-01-06T16:22:36.976Z,5.58
2019-01-06T16:25:43.109Z,5.45
2019-01-06T16:28:43.228Z,7.03
2019-01-06T16:31:49.947Z,6.03
2019-01-06T16:34:49.631Z,7.55
2019-01-06T16:37:56.525Z,6.08
2019-01-06T16:40:56.283Z,6.03
2019-01-06T16:43:44.894Z,6.95
2019-01-06T16:46:51.696Z,6.67
2019-01-06T16:49:51.649Z,6.25
2019-01-06T16:52:47.725Z,6.85
2019-01-06T16:55:54.658Z,7.17
2019-01-06T16:58:57.196Z,6.95
2019-01-06T17:02:04.079Z,8.28
2019-01-06T17:05:04.144Z,9.35
2019-01-06T17:08:11.389Z,9.18
2019-01-06T17:11:12.095Z,9.75
2019-01-06T17:14:19.317Z,9.50
2019-01-06T17:17:15.690Z,10.32
2019-01-06T17:20:23.295Z,9.35
2019-01-06T17:23:24.065Z,7.92
2019-01-06T17:26:23.951Z,10.80
2019-01-06T17:29:24.315Z,10.70
2019-01-06T17:32:31.219Z,10.55
2019-01-06T17:35:30.980Z,9.15
2019-01-06T17:38:38.092Z,9.20
2019-01-06T17:41:35.924Z,11.00
2019-01-06T17:44:35.436Z,11.20
2019-01-06T17:47:36.575Z,8.45
2019-01-06T17:50:31.741Z,11.95
2019-01-06T17:53:45.460Z,13.10
2019-01-06T17:56:39.417Z,13.50
2019-01-06T17:59:40.004Z,11.35
2019-01-06T18:02:47.954Z,12.28
2019-01-06T18:05:47.850Z,12.18
2019-01-06T18:08:54.704Z,13.90
2019-01-06T18:11:53.918Z,13.20
2019-01-06T18:14:54.099Z,15.38
2019-01-06T18:18:02.010Z,16.35
2019-01-06T18:21:02.409Z,12.78
2019-01-06T18:24:10.040Z,15.43
2019-01-06T18:27:10.614Z,12.85
2019-01-06T18:30:17.625Z,12.93
2019-01-06T18:33:17.833Z,13.65
2019-01-06T18:36:18.105Z,12.18
2019-01-06T18:39:21.080Z,13.60
2019-01-06T18:42:28.032Z,15.72
2019-01-06T18:45:28.268Z,16.23
2019-01-06T18:48:26.263Z,12.33
2019-01-06T18:51:33.071Z,13.30
2019-01-06T18:54:32.883Z,12.28
2019-01-06T18:57:39.935Z,13.00
2019-01-06T19:00:34.699Z,10.93
2019-01-06T19:03:37.567Z,12.47
2019-01-06T19:06:44.470Z,11.90
2019-01-06T19:09:43.625Z,10.55
2019-01-06T19:12:50.482Z,12.40
2019-01-06T19:15:51.049Z,16.60
2019-01-06T19:18:51.505Z,11.20
2019-01-06T19:21:58.490Z,13.90
2019-01-06T19:25:02.139Z,14.85
2019-01-06T19:28:09.005Z,14.98
2019-01-06T19:31:09.404Z,12.95
2019-01-06T19:34:09.341Z,14.20
2019-01-06T19:37:09.622Z,13.88
2019-01-06T19:40:16.728Z,15.95
2019-01-06T19:43:11.674Z,14.47
2019-01-06T19:46:18.918Z,15.60
2019-01-06T19:49:27.681Z,12.37
2019-01-06T19:52:28.066Z,14.13
2019-01-06T19:55:34.973Z,17.12
2019-01-06T19:58:37.672Z,15.55
2019-01-06T20:01:44.586Z,13.78
2019-01-06T20:04:54.523Z,14.40
2019-01-06T20:08:01.429Z,13.40
2019-01-06T20:11:02.039Z,14.25
2019-01-06T20:14:08.908Z,14.73
2019-01-06T20:17:17.113Z,14.78
2019-01-06T20:20:30.511Z,25.55
2019-01-06T20:23:31.050Z,12.65
2019-01-06T20:26:38.002Z,13.68
2019-01-06T20:29:40.846Z,15.65
2019-01-06T20:32:47.789Z,17.17
2019-01-06T20:35:48.031Z,12.18
2019-01-06T20:38:55.519Z,16.25
2019-01-06T20:41:58.811Z,16.85
2019-01-06T20:45:04.400Z,24.82
2019-01-06T20:47:58.142Z,14.85
2019-01-06T20:51:04.892Z,15.20
2019-01-06T20:54:05.107Z,15.43
2019-01-06T20:57:12.060Z,19.57
2019-01-06T21:00:11.849Z,15.08
2019-01-06T21:03:18.853Z,17.12
2019-01-06T21:06:23.000Z,15.55
2019-01-06T21:12:45.432Z,14.25
2019-01-06T21:15:52.386Z,13.90
2019-01-06T21:18:52.902Z,12.58
2019-01-06T21:22:00.020Z,12.78
2019-01-06T21:25:00.538Z,13.30
2019-01-06T21:28:07.982Z,13.62
2019-01-06T21:31:07.893Z,12.25
2019-01-06T21:34:14.842Z,11.53
2019-01-06T21:37:09.440Z,14.98
2019-01-06T21:40:16.267Z,11.68
2019-01-06T21:43:16.070Z,10.88
2019-01-06T21:46:23.142Z,12.82
2019-01-06T21:49:24.784Z,13.00
2019-01-06T21:55:58.773Z,11.12
2019-01-06T21:59:18.322Z,13.88
2019-01-06T22:02:23.719Z,13.95
2019-01-06T22:05:06.090Z,13.88
2019-01-06T22:07:59.307Z,12.90
2019-01-06T22:10:46.569Z,12.60
2019-01-06T22:13:32.852Z,13.60
2019-01-06T22:16:35.371Z,10.28
2019-01-06T22:19:21.694Z,11.93
2019-01-06T22:22:12.293Z,10.65
2019-01-06T22:25:08.692Z,9.73
2019-01-06T22:27:51.464Z,6.95
2019-01-06T22:30:37.420Z,9.05
2019-01-06T22:33:21.424Z,12.68
2019-01-06T22:36:07.150Z,10.13
2019-01-06T22:39:12.688Z,7.75
2019-01-06T22:41:58.661Z,9.83
2019-01-06T22:44:44.640Z,10.68
2019-01-06T22:47:34.829Z,11.63
2019-01-06T22:50:34.454Z,11.50
2019-01-06T22:53:29.207Z,12.33
2019-01-06T22:56:14.010Z,12.20
2019-01-06T22:59:00.285Z,11.53
2019-01-06T23:01:47.749Z,11.38
2019-01-06T23:04:23.447Z,10.20
2019-01-06T23:07:09.487Z,9.95
2019-01-06T23:09:52.901Z,9.25
2019-01-06T23:12:46.674Z,10.85
2019-01-06T23:15:34.613Z,9.73
2019-01-06T23:18:20.270Z,9.60
2019-01-06T23:21:05.041Z,9.28
2019-01-06T23:23:50.676Z,8.23
2019-01-06T23:26:50.440Z,8.38
2019-01-06T23:29:37.224Z,6.60
2019-01-06T23:32:40.153Z,4.42
2019-01-06T23:35:36.617Z,5.33
2019-01-06T23:38:23.097Z,3.98
2019-01-06T23:41:09.512Z,5.90
2019-01-06T23:44:03.666Z,5.37
2019-01-06T23:46:50.315Z,4.55
2019-01-06T23:49:28.648Z,5.33
2019-01-06T23:52:15.408Z,4.67
2019-01-06T23:55:01.385Z,4.05
2019-01-06T23:57:43.427Z,3.77
